sensor_id;sensor_type;location;lat;lon;timestamp;P1;durP1;ratioP1;P2;durP2;ratioP2
67869;SDS011;54673;52.262;6.830;2023-04-24T00:01:49;1.00;;;0.85;;
67869;SDS011;54673;52.262;6.830;2023-04-24T00:04:15;0.97;;;0.80;;
67869;SDS011;54673;52.262;6.830;2023-04-24T00:06:42;1.47;;;1.00;;
67869;SDS011;54673;52.262;6.830;2023-04-24T00:09:08;1.20;;;1.10;;
67869;SDS011;54673;52.262;6.830;2023-04-24T00:11:34;0.90;;;0.90;;
67869;SDS011;54673;52.262;6.830;2023-04-24T00:14:01;1.00;;;0.90;;
67869;SDS011;54673;52.262;6.830;2023-04-24T00:16:26;1.08;;;1.02;;
67869;SDS011;54673;52.262;6.830;2023-04-24T00:18:53;1.63;;;1.07;;
67869;SDS011;54673;52.262;6.830;2023-04-24T00:21:19;1.67;;;1.10;;
67869;SDS011;54673;52.262;6.830;2023-04-24T00:23:45;1.00;;;0.82;;
67869;SDS011;54673;52.262;6.830;2023-04-24T00:26:11;1.30;;;1.20;;
67869;SDS011;54673;52.262;6.830;2023-04-24T00:28:36;1.20;;;1.10;;
67869;SDS011;54673;52.262;6.830;2023-04-24T00:31:02;1.40;;;1.30;;
67869;SDS011;54673;52.262;6.830;2023-04-24T00:33:27;1.30;;;1.20;;
67869;SDS011;54673;52.262;6.830;2023-04-24T00:35:53;0.93;;;0.93;;
67869;SDS011;54673;52.262;6.830;2023-04-24T00:38:19;1.13;;;1.02;;
67869;SDS011;54673;52.262;6.830;2023-04-24T00:40:44;1.43;;;1.00;;
67869;SDS011;54673;52.262;6.830;2023-04-24T00:43:11;1.27;;;0.98;;
67869;SDS011;54673;52.262;6.830;2023-04-24T00:45:36;1.13;;;1.03;;
67869;SDS011;54673;52.262;6.830;2023-04-24T00:48:02;1.77;;;1.30;;
67869;SDS011;54673;52.262;6.830;2023-04-24T00:50:28;1.10;;;1.00;;
67869;SDS011;54673;52.262;6.830;2023-04-24T00:52:55;1.23;;;1.13;;
67869;SDS011;54673;52.262;6.830;2023-04-24T00:55:21;1.13;;;1.02;;
67869;SDS011;54673;52.262;6.830;2023-04-24T00:57:46;1.40;;;1.20;;
67869;SDS011;54673;52.262;6.830;2023-04-24T01:00:13;0.95;;;0.93;;
67869;SDS011;54673;52.262;6.830;2023-04-24T01:02:40;1.23;;;1.13;;
67869;SDS011;54673;52.262;6.830;2023-04-24T01:05:13;1.33;;;1.23;;
67869;SDS011;54673;52.262;6.830;2023-04-24T01:07:43;1.05;;;0.95;;
67869;SDS011;54673;52.262;6.830;2023-04-24T01:10:13;1.30;;;1.10;;
67869;SDS011;54673;52.262;6.830;2023-04-24T01:12:39;1.20;;;1.00;;
67869;SDS011;54673;52.262;6.830;2023-04-24T01:15:05;1.23;;;1.00;;
67869;SDS011;54673;52.262;6.830;2023-04-24T01:17:31;1.70;;;1.60;;
67869;SDS011;54673;52.262;6.830;2023-04-24T01:19:57;1.73;;;1.50;;
67869;SDS011;54673;52.262;6.830;2023-04-24T01:22:25;1.40;;;1.30;;
67869;SDS011;54673;52.262;6.830;2023-04-24T01:24:51;1.30;;;1.20;;
67869;SDS011;54673;52.262;6.830;2023-04-24T01:27:18;1.48;;;1.38;;
67869;SDS011;54673;52.262;6.830;2023-04-24T01:29:44;2.70;;;1.60;;
67869;SDS011;54673;52.262;6.830;2023-04-24T01:32:10;1.50;;;1.40;;
67869;SDS011;54673;52.262;6.830;2023-04-24T01:34:36;1.50;;;1.40;;
67869;SDS011;54673;52.262;6.830;2023-04-24T01:37:02;1.80;;;1.70;;
67869;SDS011;54673;52.262;6.830;2023-04-24T01:39:28;1.50;;;1.40;;
67869;SDS011;54673;52.262;6.830;2023-04-24T01:41:54;1.60;;;1.50;;
67869;SDS011;54673;52.262;6.830;2023-04-24T01:44:20;1.50;;;1.40;;
67869;SDS011;54673;52.262;6.830;2023-04-24T01:46:46;1.65;;;1.55;;
67869;SDS011;54673;52.262;6.830;2023-04-24T01:49:12;1.60;;;1.47;;
67869;SDS011;54673;52.262;6.830;2023-04-24T01:51:37;2.05;;;1.50;;
67869;SDS011;54673;52.262;6.830;2023-04-24T01:54:03;1.60;;;1.50;;
67869;SDS011;54673;52.262;6.830;2023-04-24T01:56:30;1.35;;;1.23;;
67869;SDS011;54673;52.262;6.830;2023-04-24T01:58:58;1.60;;;1.50;;
67869;SDS011;54673;52.262;6.830;2023-04-24T02:01:26;1.70;;;1.60;;
67869;SDS011;54673;52.262;6.830;2023-04-24T02:03:51;1.37;;;1.27;;
67869;SDS011;54673;52.262;6.830;2023-04-24T02:06:17;1.50;;;1.33;;
67869;SDS011;54673;52.262;6.830;2023-04-24T02:08:42;1.70;;;1.60;;
67869;SDS011;54673;52.262;6.830;2023-04-24T02:11:09;1.70;;;1.60;;
67869;SDS011;54673;52.262;6.830;2023-04-24T02:13:34;1.60;;;1.50;;
67869;SDS011;54673;52.262;6.830;2023-04-24T02:16:00;2.07;;;1.57;;
67869;SDS011;54673;52.262;6.830;2023-04-24T02:18:26;1.97;;;1.53;;
67869;SDS011;54673;52.262;6.830;2023-04-24T02:20:51;1.93;;;1.30;;
67869;SDS011;54673;52.262;6.830;2023-04-24T02:23:17;1.93;;;1.50;;
67869;SDS011;54673;52.262;6.830;2023-04-24T02:25:43;2.13;;;1.45;;
67869;SDS011;54673;52.262;6.830;2023-04-24T02:28:08;1.80;;;1.70;;
67869;SDS011;54673;52.262;6.830;2023-04-24T02:30:34;1.88;;;1.73;;
67869;SDS011;54673;52.262;6.830;2023-04-24T02:32:59;1.50;;;1.40;;
67869;SDS011;54673;52.262;6.830;2023-04-24T02:35:25;1.80;;;1.70;;
67869;SDS011;54673;52.262;6.830;2023-04-24T02:37:50;2.03;;;1.83;;
67869;SDS011;54673;52.262;6.830;2023-04-24T02:40:16;2.03;;;1.20;;
67869;SDS011;54673;52.262;6.830;2023-04-24T02:42:42;2.13;;;1.20;;
67869;SDS011;54673;52.262;6.830;2023-04-24T02:45:07;1.83;;;1.70;;
67869;SDS011;54673;52.262;6.830;2023-04-24T02:47:33;2.00;;;1.90;;
67869;SDS011;54673;52.262;6.830;2023-04-24T02:49:58;1.67;;;1.58;;
67869;SDS011;54673;52.262;6.830;2023-04-24T02:52:24;1.90;;;1.77;;
67869;SDS011;54673;52.262;6.830;2023-04-24T02:54:49;2.00;;;1.80;;
67869;SDS011;54673;52.262;6.830;2023-04-24T02:57:15;1.67;;;1.58;;
67869;SDS011;54673;52.262;6.830;2023-04-24T02:59:41;1.87;;;1.77;;
67869;SDS011;54673;52.262;6.830;2023-04-24T03:02:06;1.53;;;1.43;;
67869;SDS011;54673;52.262;6.830;2023-04-24T03:04:32;2.13;;;1.77;;
67869;SDS011;54673;52.262;6.830;2023-04-24T03:06:57;2.60;;;1.67;;
67869;SDS011;54673;52.262;6.830;2023-04-24T03:09:23;1.90;;;1.70;;
67869;SDS011;54673;52.262;6.830;2023-04-24T03:11:49;1.90;;;1.40;;
67869;SDS011;54673;52.262;6.830;2023-04-24T03:14:15;1.80;;;1.60;;
67869;SDS011;54673;52.262;6.830;2023-04-24T03:16:41;1.80;;;1.70;;
67869;SDS011;54673;52.262;6.830;2023-04-24T03:19:07;1.87;;;1.67;;
67869;SDS011;54673;52.262;6.830;2023-04-24T03:21:32;2.40;;;1.70;;
67869;SDS011;54673;52.262;6.830;2023-04-24T03:23:58;1.98;;;1.80;;
67869;SDS011;54673;52.262;6.830;2023-04-24T03:26:24;2.57;;;2.37;;
67869;SDS011;54673;52.262;6.830;2023-04-24T03:28:49;2.28;;;1.67;;
67869;SDS011;54673;52.262;6.830;2023-04-24T03:31:15;1.87;;;1.67;;
67869;SDS011;54673;52.262;6.830;2023-04-24T03:33:41;2.10;;;1.60;;
67869;SDS011;54673;52.262;6.830;2023-04-24T03:36:07;2.83;;;1.70;;
67869;SDS011;54673;52.262;6.830;2023-04-24T03:38:32;1.85;;;1.75;;
67869;SDS011;54673;52.262;6.830;2023-04-24T03:40:58;2.93;;;1.70;;
67869;SDS011;54673;52.262;6.830;2023-04-24T03:43:24;2.40;;;1.85;;
67869;SDS011;54673;52.262;6.830;2023-04-24T03:45:49;2.10;;;1.90;;
67869;SDS011;54673;52.262;6.830;2023-04-24T03:48:15;2.80;;;1.70;;
67869;SDS011;54673;52.262;6.830;2023-04-24T03:50:41;3.00;;;2.13;;
67869;SDS011;54673;52.262;6.830;2023-04-24T03:53:06;2.13;;;1.70;;
67869;SDS011;54673;52.262;6.830;2023-04-24T03:55:32;2.40;;;1.73;;
67869;SDS011;54673;52.262;6.830;2023-04-24T03:57:57;1.80;;;1.70;;
67869;SDS011;54673;52.262;6.830;2023-04-24T04:00:23;2.27;;;1.70;;
67869;SDS011;54673;52.262;6.830;2023-04-24T04:02:49;2.20;;;1.85;;
67869;SDS011;54673;52.262;6.830;2023-04-24T04:05:15;2.53;;;1.60;;
67869;SDS011;54673;52.262;6.830;2023-04-24T04:07:40;2.42;;;1.90;;
67869;SDS011;54673;52.262;6.830;2023-04-24T04:10:06;1.50;;;1.40;;
67869;SDS011;54673;52.262;6.830;2023-04-24T04:12:32;2.10;;;1.70;;
67869;SDS011;54673;52.262;6.830;2023-04-24T04:14:58;2.03;;;1.83;;
67869;SDS011;54673;52.262;6.830;2023-04-24T04:17:23;1.73;;;1.63;;
67869;SDS011;54673;52.262;6.830;2023-04-24T04:19:49;2.15;;;1.60;;
67869;SDS011;54673;52.262;6.830;2023-04-24T04:22:15;1.80;;;1.70;;
67869;SDS011;54673;52.262;6.830;2023-04-24T04:24:41;2.08;;;1.75;;
67869;SDS011;54673;52.262;6.830;2023-04-24T04:27:06;2.23;;;1.90;;
67869;SDS011;54673;52.262;6.830;2023-04-24T04:29:33;2.20;;;2.00;;
67869;SDS011;54673;52.262;6.830;2023-04-24T04:32:00;2.50;;;1.83;;
67869;SDS011;54673;52.262;6.830;2023-04-24T04:34:27;1.70;;;1.50;;
67869;SDS011;54673;52.262;6.830;2023-04-24T04:36:54;2.10;;;1.88;;
67869;SDS011;54673;52.262;6.830;2023-04-24T04:39:20;2.37;;;1.83;;
67869;SDS011;54673;52.262;6.830;2023-04-24T04:41:46;2.83;;;1.85;;
67869;SDS011;54673;52.262;6.830;2023-04-24T04:44:13;1.85;;;1.67;;
67869;SDS011;54673;52.262;6.830;2023-04-24T04:46:39;2.40;;;1.70;;
67869;SDS011;54673;52.262;6.830;2023-04-24T04:49:06;2.58;;;1.80;;
67869;SDS011;54673;52.262;6.830;2023-04-24T04:51:33;2.20;;;1.83;;
67869;SDS011;54673;52.262;6.830;2023-04-24T04:53:59;2.77;;;1.80;;
67869;SDS011;54673;52.262;6.830;2023-04-24T04:56:25;2.20;;;2.00;;
67869;SDS011;54673;52.262;6.830;2023-04-24T04:58:51;4.13;;;2.13;;
67869;SDS011;54673;52.262;6.830;2023-04-24T05:01:17;2.60;;;1.95;;
67869;SDS011;54673;52.262;6.830;2023-04-24T05:03:42;2.40;;;2.20;;
67869;SDS011;54673;52.262;6.830;2023-04-24T05:06:08;3.45;;;2.17;;
67869;SDS011;54673;52.262;6.830;2023-04-24T05:08:33;3.50;;;2.20;;
67869;SDS011;54673;52.262;6.830;2023-04-24T05:10:59;2.17;;;1.98;;
67869;SDS011;54673;52.262;6.830;2023-04-24T05:13:25;2.47;;;2.23;;
67869;SDS011;54673;52.262;6.830;2023-04-24T05:15:50;2.33;;;2.13;;
67869;SDS011;54673;52.262;6.830;2023-04-24T05:18:16;2.13;;;1.93;;
67869;SDS011;54673;52.262;6.830;2023-04-24T05:20:42;2.50;;;2.20;;
67869;SDS011;54673;52.262;6.830;2023-04-24T05:23:08;3.47;;;2.40;;
67869;SDS011;54673;52.262;6.830;2023-04-24T05:25:34;3.27;;;2.77;;
67869;SDS011;54673;52.262;6.830;2023-04-24T05:28:01;3.00;;;2.63;;
67869;SDS011;54673;52.262;6.830;2023-04-24T05:30:27;3.30;;;2.35;;
67869;SDS011;54673;52.262;6.830;2023-04-24T05:32:52;2.67;;;2.33;;
67869;SDS011;54673;52.262;6.830;2023-04-24T05:35:18;2.97;;;2.20;;
67869;SDS011;54673;52.262;6.830;2023-04-24T05:37:44;3.00;;;2.27;;
67869;SDS011;54673;52.262;6.830;2023-04-24T05:40:10;2.97;;;2.65;;
67869;SDS011;54673;52.262;6.830;2023-04-24T05:42:36;4.60;;;2.60;;
67869;SDS011;54673;52.262;6.830;2023-04-24T05:45:01;2.95;;;2.40;;
67869;SDS011;54673;52.262;6.830;2023-04-24T05:47:28;2.42;;;2.00;;
67869;SDS011;54673;52.262;6.830;2023-04-24T05:49:53;2.50;;;2.30;;
67869;SDS011;54673;52.262;6.830;2023-04-24T05:52:19;2.90;;;2.40;;
67869;SDS011;54673;52.262;6.830;2023-04-24T05:54:46;2.63;;;2.25;;
67869;SDS011;54673;52.262;6.830;2023-04-24T05:57:11;3.20;;;2.50;;
67869;SDS011;54673;52.262;6.830;2023-04-24T05:59:37;2.08;;;1.88;;
67869;SDS011;54673;52.262;6.830;2023-04-24T06:02:03;3.30;;;2.10;;
67869;SDS011;54673;52.262;6.830;2023-04-24T06:04:29;2.60;;;2.17;;
67869;SDS011;54673;52.262;6.830;2023-04-24T06:06:54;2.77;;;2.10;;
67869;SDS011;54673;52.262;6.830;2023-04-24T06:09:21;3.17;;;2.40;;
67869;SDS011;54673;52.262;6.830;2023-04-24T06:11:49;2.80;;;2.33;;
67869;SDS011;54673;52.262;6.830;2023-04-24T06:14:17;2.00;;;1.80;;
67869;SDS011;54673;52.262;6.830;2023-04-24T06:16:43;2.85;;;2.13;;
67869;SDS011;54673;52.262;6.830;2023-04-24T06:19:08;2.10;;;1.90;;
67869;SDS011;54673;52.262;6.830;2023-04-24T06:21:34;3.63;;;2.00;;
67869;SDS011;54673;52.262;6.830;2023-04-24T06:24:00;2.47;;;1.97;;
67869;SDS011;54673;52.262;6.830;2023-04-24T06:26:25;2.50;;;2.30;;
67869;SDS011;54673;52.262;6.830;2023-04-24T06:28:51;2.40;;;2.17;;
67869;SDS011;54673;52.262;6.830;2023-04-24T06:31:18;2.72;;;2.13;;
67869;SDS011;54673;52.262;6.830;2023-04-24T06:33:45;2.17;;;1.90;;
67869;SDS011;54673;52.262;6.830;2023-04-24T06:36:11;2.60;;;2.40;;
67869;SDS011;54673;52.262;6.830;2023-04-24T06:38:37;4.00;;;2.17;;
67869;SDS011;54673;52.262;6.830;2023-04-24T06:41:03;3.53;;;2.10;;
67869;SDS011;54673;52.262;6.830;2023-04-24T06:43:30;3.67;;;2.25;;
67869;SDS011;54673;52.262;6.830;2023-04-24T06:45:57;2.33;;;2.13;;
67869;SDS011;54673;52.262;6.830;2023-04-24T06:48:23;2.40;;;2.20;;
67869;SDS011;54673;52.262;6.830;2023-04-24T06:50:50;3.78;;;2.30;;
67869;SDS011;54673;52.262;6.830;2023-04-24T06:53:15;2.77;;;2.10;;
67869;SDS011;54673;52.262;6.830;2023-04-24T06:55:41;2.90;;;2.30;;
67869;SDS011;54673;52.262;6.830;2023-04-24T06:58:08;2.40;;;2.20;;
67869;SDS011;54673;52.262;6.830;2023-04-24T07:00:33;2.35;;;2.15;;
67869;SDS011;54673;52.262;6.830;2023-04-24T07:02:59;2.33;;;2.13;;
67869;SDS011;54673;52.262;6.830;2023-04-24T07:05:25;2.40;;;2.20;;
67869;SDS011;54673;52.262;6.830;2023-04-24T07:07:50;2.30;;;2.10;;
67869;SDS011;54673;52.262;6.830;2023-04-24T07:10:16;2.10;;;1.90;;
67869;SDS011;54673;52.262;6.830;2023-04-24T07:12:43;2.60;;;2.37;;
67869;SDS011;54673;52.262;6.830;2023-04-24T07:15:08;2.85;;;2.20;;
67869;SDS011;54673;52.262;6.830;2023-04-24T07:17:34;3.17;;;1.97;;
67869;SDS011;54673;52.262;6.830;2023-04-24T07:20:00;2.30;;;2.10;;
67869;SDS011;54673;52.262;6.830;2023-04-24T07:22:26;2.33;;;2.13;;
67869;SDS011;54673;52.262;6.830;2023-04-24T07:24:51;3.27;;;2.13;;
67869;SDS011;54673;52.262;6.830;2023-04-24T07:27:17;2.10;;;1.90;;
67869;SDS011;54673;52.262;6.830;2023-04-24T07:29:42;2.10;;;1.90;;
67869;SDS011;54673;52.262;6.830;2023-04-24T07:32:08;5.47;;;2.10;;
67869;SDS011;54673;52.262;6.830;2023-04-24T07:34:34;3.05;;;2.17;;
67869;SDS011;54673;52.262;6.830;2023-04-24T07:37:00;4.73;;;2.20;;
67869;SDS011;54673;52.262;6.830;2023-04-24T07:39:26;7.25;;;1.80;;
67869;SDS011;54673;52.262;6.830;2023-04-24T07:41:52;2.33;;;1.70;;
67869;SDS011;54673;52.262;6.830;2023-04-24T07:44:18;2.40;;;1.67;;
67869;SDS011;54673;52.262;6.830;2023-04-24T07:46:43;2.87;;;1.80;;
67869;SDS011;54673;52.262;6.830;2023-04-24T07:49:09;2.15;;;2.00;;
67869;SDS011;54673;52.262;6.830;2023-04-24T07:51:35;1.73;;;1.57;;
67869;SDS011;54673;52.262;6.830;2023-04-24T07:54:03;1.98;;;1.75;;
67869;SDS011;54673;52.262;6.830;2023-04-24T07:56:31;2.20;;;2.00;;
67869;SDS011;54673;52.262;6.830;2023-04-24T07:58:56;1.70;;;1.40;;
67869;SDS011;54673;52.262;6.830;2023-04-24T08:01:22;2.15;;;1.95;;
67869;SDS011;54673;52.262;6.830;2023-04-24T08:03:47;3.10;;;1.67;;
67869;SDS011;54673;52.262;6.830;2023-04-24T08:06:13;2.10;;;1.90;;
67869;SDS011;54673;52.262;6.830;2023-04-24T08:08:38;1.85;;;1.67;;
67869;SDS011;54673;52.262;6.830;2023-04-24T08:11:04;1.90;;;1.77;;
67869;SDS011;54673;52.262;6.830;2023-04-24T08:13:30;2.33;;;1.70;;
67869;SDS011;54673;52.262;6.830;2023-04-24T08:15:56;1.70;;;1.60;;
67869;SDS011;54673;52.262;6.830;2023-04-24T08:18:22;2.03;;;1.83;;
67869;SDS011;54673;52.262;6.830;2023-04-24T08:20:48;2.30;;;1.83;;
67869;SDS011;54673;52.262;6.830;2023-04-24T08:23:13;2.53;;;1.70;;
67869;SDS011;54673;52.262;6.830;2023-04-24T08:25:39;3.97;;;1.90;;
67869;SDS011;54673;52.262;6.830;2023-04-24T08:28:05;2.65;;;1.83;;
67869;SDS011;54673;52.262;6.830;2023-04-24T08:30:33;7.37;;;1.47;;
67869;SDS011;54673;52.262;6.830;2023-04-24T08:32:58;4.28;;;1.80;;
67869;SDS011;54673;52.262;6.830;2023-04-24T08:35:24;2.83;;;1.80;;
67869;SDS011;54673;52.262;6.830;2023-04-24T08:37:51;8.23;;;1.77;;
67869;SDS011;54673;52.262;6.830;2023-04-24T08:40:18;5.50;;;1.80;;
67869;SDS011;54673;52.262;6.830;2023-04-24T08:42:50;7.70;;;1.63;;
67869;SDS011;54673;52.262;6.830;2023-04-24T08:45:19;2.55;;;1.80;;
67869;SDS011;54673;52.262;6.830;2023-04-24T08:47:44;3.57;;;1.50;;
67869;SDS011;54673;52.262;6.830;2023-04-24T08:50:11;4.53;;;1.50;;
67869;SDS011;54673;52.262;6.830;2023-04-24T08:52:37;2.30;;;1.60;;
67869;SDS011;54673;52.262;6.830;2023-04-24T08:55:03;3.58;;;1.60;;
67869;SDS011;54673;52.262;6.830;2023-04-24T08:57:29;1.70;;;1.60;;
67869;SDS011;54673;52.262;6.830;2023-04-24T08:59:56;5.90;;;1.85;;
67869;SDS011;54673;52.262;6.830;2023-04-24T09:02:23;4.07;;;1.65;;
67869;SDS011;54673;52.262;6.830;2023-04-24T09:04:49;3.17;;;1.60;;
67869;SDS011;54673;52.262;6.830;2023-04-24T09:07:16;2.72;;;1.60;;
67869;SDS011;54673;52.262;6.830;2023-04-24T09:09:43;2.90;;;1.40;;
67869;SDS011;54673;52.262;6.830;2023-04-24T09:12:09;3.57;;;1.50;;
67869;SDS011;54673;52.262;6.830;2023-04-24T09:14:35;5.20;;;1.50;;
67869;SDS011;54673;52.262;6.830;2023-04-24T09:17:04;3.67;;;1.30;;
67869;SDS011;54673;52.262;6.830;2023-04-24T09:19:31;2.67;;;1.47;;
67869;SDS011;54673;52.262;6.830;2023-04-24T09:21:56;6.20;;;1.50;;
67869;SDS011;54673;52.262;6.830;2023-04-24T09:24:22;8.70;;;1.50;;
67869;SDS011;54673;52.262;6.830;2023-04-24T09:26:48;7.53;;;1.45;;
67869;SDS011;54673;52.262;6.830;2023-04-24T09:29:20;2.40;;;1.00;;
67869;SDS011;54673;52.262;6.830;2023-04-24T09:31:46;2.60;;;1.23;;
67869;SDS011;54673;52.262;6.830;2023-04-24T09:34:12;7.17;;;1.50;;
67869;SDS011;54673;52.262;6.830;2023-04-24T09:36:38;2.53;;;1.23;;
67869;SDS011;54673;52.262;6.830;2023-04-24T09:39:11;3.17;;;1.07;;
67869;SDS011;54673;52.262;6.830;2023-04-24T09:41:52;14.02;;;1.60;;
67869;SDS011;54673;52.262;6.830;2023-04-24T09:44:22;3.60;;;1.20;;
67869;SDS011;54673;52.262;6.830;2023-04-24T09:46:50;6.30;;;1.40;;
67869;SDS011;54673;52.262;6.830;2023-04-24T09:49:20;3.20;;;1.48;;
67869;SDS011;54673;52.262;6.830;2023-04-24T09:51:49;3.15;;;1.70;;
67869;SDS011;54673;52.262;6.830;2023-04-24T09:54:16;3.40;;;1.60;;
67869;SDS011;54673;52.262;6.830;2023-04-24T09:56:47;7.10;;;1.60;;
67869;SDS011;54673;52.262;6.830;2023-04-24T09:59:19;2.65;;;1.60;;
67869;SDS011;54673;52.262;6.830;2023-04-24T10:01:45;4.43;;;2.10;;
67869;SDS011;54673;52.262;6.830;2023-04-24T10:04:18;2.50;;;1.40;;
67869;SDS011;54673;52.262;6.830;2023-04-24T10:06:47;3.25;;;1.70;;
67869;SDS011;54673;52.262;6.830;2023-04-24T10:09:14;3.45;;;1.77;;
67869;SDS011;54673;52.262;6.830;2023-04-24T10:11:42;2.77;;;1.43;;
67869;SDS011;54673;52.262;6.830;2023-04-24T10:14:14;2.50;;;1.45;;
67869;SDS011;54673;52.262;6.830;2023-04-24T10:16:41;4.95;;;1.70;;
67869;SDS011;54673;52.262;6.830;2023-04-24T10:19:07;2.33;;;1.63;;
67869;SDS011;54673;52.262;6.830;2023-04-24T10:21:33;1.83;;;1.40;;
67869;SDS011;54673;52.262;6.830;2023-04-24T10:24:00;1.80;;;1.40;;
67869;SDS011;54673;52.262;6.830;2023-04-24T10:26:28;1.58;;;1.48;;
67869;SDS011;54673;52.262;6.830;2023-04-24T10:28:54;2.53;;;1.58;;
67869;SDS011;54673;52.262;6.830;2023-04-24T10:31:22;2.50;;;1.60;;
67869;SDS011;54673;52.262;6.830;2023-04-24T10:33:48;2.20;;;2.00;;
67869;SDS011;54673;52.262;6.830;2023-04-24T10:36:16;2.17;;;1.50;;
67869;SDS011;54673;52.262;6.830;2023-04-24T10:38:42;2.33;;;1.67;;
67869;SDS011;54673;52.262;6.830;2023-04-24T10:41:12;3.22;;;1.95;;
67869;SDS011;54673;52.262;6.830;2023-04-24T10:46:38;2.53;;;1.80;;
67869;SDS011;54673;52.262;6.830;2023-04-24T10:49:09;5.82;;;1.90;;
67869;SDS011;54673;52.262;6.830;2023-04-24T10:51:44;2.73;;;1.63;;
67869;SDS011;54673;52.262;6.830;2023-04-24T10:54:26;3.47;;;1.75;;
67869;SDS011;54673;52.262;6.830;2023-04-24T10:56:55;2.90;;;1.73;;
67869;SDS011;54673;52.262;6.830;2023-04-24T10:59:48;3.13;;;1.50;;
67869;SDS011;54673;52.262;6.830;2023-04-24T11:02:18;2.75;;;1.70;;
67869;SDS011;54673;52.262;6.830;2023-04-24T11:05:02;2.87;;;1.90;;
67869;SDS011;54673;52.262;6.830;2023-04-24T11:07:28;1.77;;;1.43;;
67869;SDS011;54673;52.262;6.830;2023-04-24T11:09:58;2.75;;;1.90;;
67869;SDS011;54673;52.262;6.830;2023-04-24T11:12:25;1.97;;;1.77;;
67869;SDS011;54673;52.262;6.830;2023-04-24T11:17:54;1.95;;;1.35;;
67869;SDS011;54673;52.262;6.830;2023-04-24T11:20:16;2.30;;;1.40;;
67869;SDS011;54673;52.262;6.830;2023-04-24T11:22:42;2.40;;;1.90;;
67869;SDS011;54673;52.262;6.830;2023-04-24T11:25:08;1.80;;;1.45;;
67869;SDS011;54673;52.262;6.830;2023-04-24T11:27:43;1.67;;;1.33;;
67869;SDS011;54673;52.262;6.830;2023-04-24T11:30:10;3.58;;;1.52;;
67869;SDS011;54673;52.262;6.830;2023-04-24T11:32:42;2.45;;;1.50;;
67869;SDS011;54673;52.262;6.830;2023-04-24T11:35:18;2.23;;;1.50;;
67869;SDS011;54673;52.262;6.830;2023-04-24T11:37:49;3.33;;;1.52;;
67869;SDS011;54673;52.262;6.830;2023-04-24T11:40:17;3.37;;;1.80;;
67869;SDS011;54673;52.262;6.830;2023-04-24T11:42:46;2.27;;;1.60;;
67869;SDS011;54673;52.262;6.830;2023-04-24T11:45:22;2.97;;;1.60;;
67869;SDS011;54673;52.262;6.830;2023-04-24T11:47:49;2.33;;;1.30;;
67869;SDS011;54673;52.262;6.830;2023-04-24T11:50:16;1.77;;;1.43;;
67869;SDS011;54673;52.262;6.830;2023-04-24T11:52:44;2.13;;;1.60;;
67869;SDS011;54673;52.262;6.830;2023-04-24T11:57:39;2.17;;;1.63;;
67869;SDS011;54673;52.262;6.830;2023-04-24T12:00:14;3.07;;;1.27;;
67869;SDS011;54673;52.262;6.830;2023-04-24T12:02:41;3.07;;;1.67;;
67869;SDS011;54673;52.262;6.830;2023-04-24T12:05:07;4.78;;;1.50;;
67869;SDS011;54673;52.262;6.830;2023-04-24T12:07:39;3.93;;;1.50;;
67869;SDS011;54673;52.262;6.830;2023-04-24T12:10:09;2.25;;;1.30;;
67869;SDS011;54673;52.262;6.830;2023-04-24T12:12:35;4.00;;;1.40;;
67869;SDS011;54673;52.262;6.830;2023-04-24T12:15:01;1.53;;;1.10;;
67869;SDS011;54673;52.262;6.830;2023-04-24T12:17:32;7.68;;;1.20;;
67869;SDS011;54673;52.262;6.830;2023-04-24T12:19:59;8.90;;;1.30;;
67869;SDS011;54673;52.262;6.830;2023-04-24T12:22:27;1.70;;;1.00;;
67869;SDS011;54673;52.262;6.830;2023-04-24T12:25:02;3.50;;;1.17;;
67869;SDS011;54673;52.262;6.830;2023-04-24T12:27:30;3.80;;;1.50;;
67869;SDS011;54673;52.262;6.830;2023-04-24T12:29:58;3.80;;;1.47;;
67869;SDS011;54673;52.262;6.830;2023-04-24T12:32:24;5.38;;;1.45;;
67869;SDS011;54673;52.262;6.830;2023-04-24T12:34:51;1.80;;;1.30;;
67869;SDS011;54673;52.262;6.830;2023-04-24T12:37:17;1.93;;;1.47;;
67869;SDS011;54673;52.262;6.830;2023-04-24T12:40:03;2.53;;;1.10;;
67869;SDS011;54673;52.262;6.830;2023-04-24T12:42:31;1.27;;;1.00;;
67869;SDS011;54673;52.262;6.830;2023-04-24T12:44:58;1.70;;;1.10;;
67869;SDS011;54673;52.262;6.830;2023-04-24T12:47:25;12.90;;;1.15;;
67869;SDS011;54673;52.262;6.830;2023-04-24T12:49:50;4.43;;;0.90;;
67869;SDS011;54673;52.262;6.830;2023-04-24T12:52:17;2.10;;;1.00;;
67869;SDS011;54673;52.262;6.830;2023-04-24T12:54:45;12.40;;;1.25;;
67869;SDS011;54673;52.262;6.830;2023-04-24T12:57:10;8.45;;;1.13;;
67869;SDS011;54673;52.262;6.830;2023-04-24T12:59:36;2.53;;;1.20;;
67869;SDS011;54673;52.262;6.830;2023-04-24T13:02:01;6.73;;;1.10;;
67869;SDS011;54673;52.262;6.830;2023-04-24T13:04:27;2.75;;;0.90;;
67869;SDS011;54673;52.262;6.830;2023-04-24T13:06:53;4.20;;;1.50;;
67869;SDS011;54673;52.262;6.830;2023-04-24T13:09:18;3.40;;;1.00;;
67869;SDS011;54673;52.262;6.830;2023-04-24T13:11:44;2.57;;;1.13;;
67869;SDS011;54673;52.262;6.830;2023-04-24T13:14:09;3.00;;;1.10;;
67869;SDS011;54673;52.262;6.830;2023-04-24T13:16:35;1.70;;;0.90;;
67869;SDS011;54673;52.262;6.830;2023-04-24T13:19:00;3.83;;;1.00;;
67869;SDS011;54673;52.262;6.830;2023-04-24T13:21:26;1.47;;;0.90;;
67869;SDS011;54673;52.262;6.830;2023-04-24T13:23:52;4.50;;;1.02;;
67869;SDS011;54673;52.262;6.830;2023-04-24T13:26:18;2.10;;;1.00;;
67869;SDS011;54673;52.262;6.830;2023-04-24T13:28:43;4.00;;;1.30;;
67869;SDS011;54673;52.262;6.830;2023-04-24T13:31:09;3.30;;;1.10;;
67869;SDS011;54673;52.262;6.830;2023-04-24T13:33:34;3.33;;;1.10;;
67869;SDS011;54673;52.262;6.830;2023-04-24T13:36:00;6.57;;;1.00;;
67869;SDS011;54673;52.262;6.830;2023-04-24T13:38:26;5.27;;;1.00;;
67869;SDS011;54673;52.262;6.830;2023-04-24T13:40:52;3.45;;;1.10;;
67869;SDS011;54673;52.262;6.830;2023-04-24T13:43:17;4.67;;;0.90;;
67869;SDS011;54673;52.262;6.830;2023-04-24T13:45:43;5.60;;;1.02;;
67869;SDS011;54673;52.262;6.830;2023-04-24T13:48:08;2.87;;;1.10;;
67869;SDS011;54673;52.262;6.830;2023-04-24T13:50:34;2.23;;;1.00;;
67869;SDS011;54673;52.262;6.830;2023-04-24T13:52:59;4.05;;;1.13;;
67869;SDS011;54673;52.262;6.830;2023-04-24T13:55:26;3.73;;;1.00;;
67869;SDS011;54673;52.262;6.830;2023-04-24T13:57:51;2.42;;;1.00;;
67869;SDS011;54673;52.262;6.830;2023-04-24T14:00:19;3.60;;;1.00;;
67869;SDS011;54673;52.262;6.830;2023-04-24T14:02:45;2.37;;;0.97;;
67869;SDS011;54673;52.262;6.830;2023-04-24T14:05:12;2.50;;;1.00;;
67869;SDS011;54673;52.262;6.830;2023-04-24T14:07:40;1.63;;;1.10;;
67869;SDS011;54673;52.262;6.830;2023-04-24T14:10:06;7.97;;;1.30;;
67869;SDS011;54673;52.262;6.830;2023-04-24T14:12:32;2.72;;;1.10;;
67869;SDS011;54673;52.262;6.830;2023-04-24T14:14:59;2.70;;;1.10;;
67869;SDS011;54673;52.262;6.830;2023-04-24T14:17:24;3.37;;;1.50;;
67869;SDS011;54673;52.262;6.830;2023-04-24T14:19:50;1.35;;;1.10;;
67869;SDS011;54673;52.262;6.830;2023-04-24T14:22:17;2.10;;;1.33;;
67869;SDS011;54673;52.262;6.830;2023-04-24T14:24:42;2.20;;;1.17;;
67869;SDS011;54673;52.262;6.830;2023-04-24T14:27:08;2.37;;;1.20;;
67869;SDS011;54673;52.262;6.830;2023-04-24T14:29:33;5.70;;;1.48;;
67869;SDS011;54673;52.262;6.830;2023-04-24T14:31:59;3.73;;;1.13;;
67869;SDS011;54673;52.262;6.830;2023-04-24T14:34:24;2.33;;;1.20;;
67869;SDS011;54673;52.262;6.830;2023-04-24T14:36:52;1.20;;;1.10;;
67869;SDS011;54673;52.262;6.830;2023-04-24T14:39:18;1.47;;;1.10;;
67869;SDS011;54673;52.262;6.830;2023-04-24T14:41:43;2.08;;;0.90;;
67869;SDS011;54673;52.262;6.830;2023-04-24T14:44:09;3.43;;;1.60;;
67869;SDS011;54673;52.262;6.830;2023-04-24T14:46:35;2.83;;;0.80;;
67869;SDS011;54673;52.262;6.830;2023-04-24T14:49:01;2.37;;;1.23;;
67869;SDS011;54673;52.262;6.830;2023-04-24T14:51:26;1.30;;;0.88;;
67869;SDS011;54673;52.262;6.830;2023-04-24T14:53:52;3.97;;;1.40;;